Time;durP1;ratioP1;P1;durP2;ratioP2;P2;SDS_P1;SDS_P2;PMS_P1;PMS_P2;Temp;Humidity;BMP_temperature;BMP_pressure;BME280_temperature;BME280_humidity;BME280_pressure;Samples;Min_cycle;Max_cycle;Signal;HPM_P1;HPM_P2
2023/12/02 00:00:13;;;;;;;3.65;1.52;;;;;;;;;;5027709;28;20289;-75
2023/12/02 00:02:39;;;;;;;4.80;1.60;;;;;;;;;;5052013;28;20195;-72
2023/12/02 00:05:06;;;;;;;1.70;1.58;;;;;;;;;;5062925;28;20628;-73
2023/12/02 00:07:33;;;;;;;3.78;1.27;;;;;;;;;;5062738;28;20268;-72
2023/12/02 00:09:59;;;;;;;5.13;2.20;;;;;;;;;;5064473;28;20618;-72
2023/12/02 00:12:25;;;;;;;2.97;1.30;;;;;;;;;;5061786;28;20737;-72
2023/12/02 00:14:54;;;;;;;5.47;1.35;;;;;;;;;;5047695;28;20303;-73
2023/12/02 00:17:20;;;;;;;3.90;1.45;;;;;;;;;;5048130;28;20234;-72
2023/12/02 00:19:47;;;;;;;4.13;1.60;;;;;;;;;;5054986;28;20256;-72
2023/12/02 00:22:14;;;;;;;3.05;2.15;;;;;;;;;;5058032;28;20287;-73
2023/12/02 00:24:40;;;;;;;1.73;1.42;;;;;;;;;;5059888;28;20222;-72
2023/12/02 00:27:07;;;;;;;2.92;1.60;;;;;;;;;;5057769;28;20291;-73
2023/12/02 00:29:33;;;;;;;4.32;1.38;;;;;;;;;;5062669;28;20234;-72
2023/12/02 00:32:01;;;;;;;3.95;1.30;;;;;;;;;;5057065;28;20287;-74
2023/12/02 00:34:27;;;;;;;5.18;1.35;;;;;;;;;;5059526;28;20263;-72
2023/12/02 00:36:54;;;;;;;2.95;1.67;;;;;;;;;;5058587;28;20269;-72
2023/12/02 00:39:20;;;;;;;5.50;1.60;;;;;;;;;;5063554;28;20222;-74
2023/12/02 00:41:47;;;;;;;4.30;1.88;;;;;;;;;;5061358;28;20235;-72
2023/12/02 00:44:13;;;;;;;2.90;2.00;;;;;;;;;;5053167;28;20253;-72
2023/12/02 00:46:40;;;;;;;2.65;1.20;;;;;;;;;;5058644;28;20257;-72
2023/12/02 00:49:09;;;;;;;6.72;1.30;;;;;;;;;;5061848;28;20199;-72
2023/12/02 00:51:35;;;;;;;3.75;1.60;;;;;;;;;;5056567;28;20207;-73
2023/12/02 00:54:02;;;;;;;7.60;1.60;;;;;;;;;;5058351;28;20251;-72
2023/12/02 00:56:28;;;;;;;14.30;5.78;;;;;;;;;;5059650;28;20207;-72
2023/12/02 00:58:55;;;;;;;6.70;4.43;;;;;;;;;;5058169;28;20779;-72
2023/12/02 01:01:21;;;;;;;7.30;3.53;;;;;;;;;;5058074;28;20234;-73
2023/12/02 01:03:48;;;;;;;5.80;2.17;;;;;;;;;;5062794;28;20248;-72
2023/12/02 01:06:15;;;;;;;4.53;2.00;;;;;;;;;;5057624;28;20233;-74
2023/12/02 01:08:42;;;;;;;6.53;1.70;;;;;;;;;;5058291;28;20194;-73
2023/12/02 01:11:09;;;;;;;9.00;5.28;;;;;;;;;;5059445;28;20211;-72
2023/12/02 01:13:35;;;;;;;3.42;1.42;;;;;;;;;;5062323;28;20738;-73
2023/12/02 01:16:02;;;;;;;9.45;4.95;;;;;;;;;;5056339;28;20203;-73
2023/12/02 01:18:28;;;;;;;13.02;7.18;;;;;;;;;;5058944;28;20235;-72
2023/12/02 01:20:55;;;;;;;13.20;5.00;;;;;;;;;;5050314;28;20203;-72
2023/12/02 01:23:23;;;;;;;5.53;2.63;;;;;;;;;;5055678;28;20264;-72
2023/12/02 01:25:49;;;;;;;4.65;2.63;;;;;;;;;;5055806;28;20206;-73
2023/12/02 01:28:16;;;;;;;6.32;2.15;;;;;;;;;;5060013;28;20211;-72
2023/12/02 01:30:42;;;;;;;2.42;2.00;;;;;;;;;;5058681;28;20199;-72
2023/12/02 01:33:09;;;;;;;2.88;2.00;;;;;;;;;;5061736;28;20245;-72
2023/12/02 01:35:35;;;;;;;5.18;2.08;;;;;;;;;;5056937;28;20234;-73
2023/12/02 01:38:01;;;;;;;5.50;2.33;;;;;;;;;;5058627;28;21102;-73
2023/12/02 01:40:31;;;;;;;5.00;2.00;;;;;;;-142.91;0.00;100169.13;5053034;28;20225;-73
2023/12/02 01:42:57;;;;;;;3.05;1.77;;;;;;;;;;5056397;28;20226;-72
2023/12/02 01:45:24;;;;;;;2.63;2.05;;;;;;;;;;5057343;28;20640;-74
2023/12/02 01:47:50;;;;;;;3.22;1.27;;;;;;;;;;5054387;28;20206;-72
2023/12/02 01:50:18;;;;;;;1.85;1.40;;;;;;;;;;5056623;28;20267;-73
2023/12/02 01:52:45;;;;;;;3.90;1.80;;;;;;;;;;5059651;28;20649;-72
2023/12/02 01:55:11;;;;;;;2.90;1.15;;;;;;;;;;5057332;28;20254;-73
2023/12/02 01:57:39;;;;;;;6.35;2.13;;;;;;;;;;5055681;28;20198;-73
2023/12/02 02:00:07;;;;;;;2.95;1.10;;;;;;;;;;5056536;28;20214;-72
2023/12/02 02:02:33;;;;;;;2.97;2.20;;;;;;;;;;5062108;28;20285;-72
2023/12/02 02:04:59;;;;;;;1.75;1.27;;;;;;;;;;5056429;28;20700;-72
2023/12/02 02:07:26;;;;;;;8.50;1.70;;;;;;;;;;5058075;28;20199;-73
2023/12/02 02:09:53;;;;;;;3.80;1.77;;;;;;;;;;5056808;28;20634;-73
2023/12/02 02:12:19;;;;;;;4.75;1.73;;;;;;;;;;5056421;28;20680;-72
2023/12/02 02:14:47;;;;;;;5.03;2.08;;;;;;;;;;5056190;28;20267;-72
2023/12/02 02:17:13;;;;;;;3.53;1.88;;;;;;;;;;5054842;28;20207;-72
2023/12/02 02:19:40;;;;;;;1.85;1.73;;;;;;;;;;5053836;28;20283;-73
2023/12/02 02:22:08;;;;;;;4.75;1.90;;;;;;;;;;5059998;28;20319;-72
2023/12/02 02:24:34;;;;;;;6.35;2.03;;;;;;;;;;5059732;28;20256;-72
2023/12/02 02:27:01;;;;;;;7.07;1.85;;;;;;;;;;5055008;28;20257;-73
2023/12/02 02:29:27;;;;;;;2.70;1.75;;;;;;;;;;5050196;28;20238;-72
2023/12/02 02:31:53;;;;;;;8.48;2.45;;;;;;;;;;5060238;28;20214;-72
2023/12/02 02:34:20;;;;;;;4.90;2.30;;;;;;;;;;5054062;28;20933;-72
2023/12/02 02:36:46;;;;;;;5.32;1.90;;;;;;;;;;5051884;28;20676;-72
2023/12/02 02:39:14;;;;;;;3.47;2.28;;;;;;;;;;5061237;28;20217;-72
2023/12/02 02:41:42;;;;;;;3.45;2.08;;;;;;;;;;5057439;28;20199;-72
2023/12/02 02:44:09;;;;;;;3.13;1.73;;;;;;;;;;5054830;28;20248;-70
2023/12/02 02:46:35;;;;;;;3.78;1.73;;;;;;;;;;5057498;28;20644;-71
2023/12/02 02:49:02;;;;;;;4.30;2.30;;;;;;;;;;5058233;28;20263;-71
2023/12/02 02:51:29;;;;;;;6.53;2.10;;;;;;;;;;5057706;28;20602;-71
2023/12/02 02:53:56;;;;;;;11.20;3.00;;;;;;;;;;5053837;28;20707;-71
2023/12/02 02:56:25;;;;;;;2.33;1.75;;;;;;;;;;5058576;28;20198;-72
2023/12/02 02:58:51;;;;;;;3.55;1.90;;;;;;;;;;5052798;28;20699;-74
2023/12/02 03:01:18;;;;;;;5.25;1.95;;;;;;;;;;5054615;28;20737;-72
2023/12/02 03:03:44;;;;;;;4.75;1.95;;;;;;;;;;5057422;28;20211;-72
2023/12/02 03:06:10;;;;;;;7.05;2.60;;;;;;;;;;5055319;28;20203;-71
2023/12/02 03:08:37;;;;;;;2.53;2.10;;;;;;;;;;5054470;28;20235;-73
2023/12/02 03:11:03;;;;;;;4.47;1.88;;;;;;;;;;5057042;28;20210;-73
2023/12/02 03:13:31;;;;;;;5.00;2.17;;;;;;;;;;5054066;28;20203;-72
2023/12/02 03:15:58;;;;;;;2.42;2.15;;;;;;;;;;5051773;28;20720;-71
2023/12/02 03:18:24;;;;;;;3.03;2.38;;;;;;;;;;5060305;28;20671;-72
2023/12/02 03:20:51;;;;;;;4.22;2.35;;;;;;;;;;5061161;28;20242;-72
2023/12/02 03:23:17;;;;;;;4.65;1.95;;;;;;;;;;5056983;28;20202;-72
2023/12/02 03:25:43;;;;;;;4.70;2.13;;;;;;;;;;5063625;28;20601;-72
2023/12/02 03:28:10;;;;;;;6.60;3.42;;;;;;;;;;5060470;28;20226;-73
2023/12/02 03:30:38;;;;;;;5.15;2.60;;;;;;;;;;5061034;28;20199;-71
2023/12/02 03:33:06;;;;;;;9.93;2.33;;;;;;;;;;5059887;28;20316;-72
2023/12/02 03:35:32;;;;;;;10.07;2.00;;;;;;;;;;5063699;28;20233;-73
2023/12/02 03:37:58;;;;;;;4.45;1.88;;;;;;;;;;5058632;28;20215;-75
2023/12/02 03:40:25;;;;;;;6.05;1.80;;;;;;;;;;5054206;28;20226;-74
2023/12/02 03:42:52;;;;;;;6.13;2.40;;;;;;;;;;5057019;28;20213;-72
2023/12/02 03:45:18;;;;;;;5.65;3.28;;;;;;;;;;5055261;28;20203;-74
2023/12/02 03:47:46;;;;;;;2.25;1.60;;;;;;;;;;5050403;28;20206;-74
2023/12/02 03:50:13;;;;;;;2.97;1.67;;;;;;;;;;5050105;28;20713;-75
2023/12/02 03:52:40;;;;;;;7.90;2.40;;;;;;;;;;5050223;28;20210;-75
2023/12/02 03:55:07;;;;;;;6.38;2.45;;;;;;;;;;5050694;28;20344;-75
2023/12/02 03:57:34;;;;;;;4.47;2.13;;;;;;;;;;5051384;28;20308;-72
2023/12/02 04:00:00;;;;;;;4.38;2.35;;;;;;;;;;5051995;28;20297;-73
2023/12/02 04:02:27;;;;;;;3.10;1.75;;;;;;;;;;5052318;28;20253;-73
2023/12/02 04:04:55;;;;;;;4.70;2.20;;;;;;;;;;5049139;28;20198;-74
2023/12/02 04:07:21;;;;;;;7.40;2.30;;;;;;;;;;5049002;28;20221;-73
2023/12/02 04:09:49;;;;;;;3.17;1.95;;;;;;;;;;5050587;28;20223;-73
2023/12/02 04:12:16;;;;;;;10.45;2.55;;;;;;;;;;5050304;28;20226;-72
2023/12/02 04:14:43;;;;;;;7.65;2.03;;;;;;;;;;5053883;28;20729;-73
2023/12/02 04:17:09;;;;;;;3.97;2.08;;;;;;;;;;5055224;28;20199;-72
2023/12/02 04:19:35;;;;;;;8.68;3.08;;;;;;;;;;5050069;28;20237;-72
2023/12/02 04:22:04;;;;;;;12.20;2.20;;;;;;;;;;5050138;28;20266;-73
2023/12/02 04:24:30;;;;;;;5.53;2.33;;;;;;;;;;5050530;28;20245;-73
2023/12/02 04:26:57;;;;;;;6.78;2.85;;;;;;;;;;5049320;28;20207;-73
2023/12/02 04:29:23;;;;;;;5.28;2.00;;;;;;;;;;5051707;28;20199;-73
2023/12/02 04:31:49;;;;;;;2.83;2.28;;;;;;;;;;5050538;28;20230;-73
2023/12/02 04:34:16;;;;;;;7.30;2.72;;;;;;;;;;5050905;28;20268;-73
2023/12/02 04:36:43;;;;;;;3.42;2.10;;;;;;;;;;5048408;28;20230;-74
2023/12/02 04:39:12;;;;;;;8.82;3.03;;;;;;;;;;5050553;28;20276;-73
2023/12/02 04:41:39;;;;;;;3.67;2.38;;;;;;;;;;5052783;28;20203;-73
2023/12/02 04:44:07;;;;;;;8.25;2.15;;;;;;;;;;5043981;28;20202;-73
2023/12/02 04:46:33;;;;;;;4.70;2.60;;;;;;;;;;5038157;28;20222;-73
2023/12/02 04:49:03;;;;;;;9.35;2.50;;;;;;;;;;5058088;28;20230;-73
2023/12/02 04:51:29;;;;;;;2.42;2.22;;;;;;;;;;5060971;28;20293;-73
2023/12/02 04:53:56;;;;;;;3.88;1.88;;;;;;;;;;5052824;28;20280;-72
2023/12/02 04:56:24;;;;;;;5.40;2.03;;;;;;;;;;5038330;28;20272;-74
2023/12/02 04:58:50;;;;;;;3.92;2.42;;;;;;;;;;5045854;28;20195;-74
2023/12/02 05:01:17;;;;;;;10.73;3.65;;;;;;;;;;5048117;28;20253;-73
2023/12/02 05:03:44;;;;;;;7.47;2.33;;;;;;;;;;5048719;28;20575;-73
2023/12/02 05:06:14;;;;;;;8.93;2.60;;;;;;;;;;5047519;28;20276;-74
2023/12/02 05:08:43;;;;;;;4.20;2.35;;;;;;;;;;5044483;28;20237;-74
2023/12/02 05:11:09;;;;;;;5.07;1.88;;;;;;;;;;5047892;28;20228;-73
2023/12/02 05:13:37;;;;;;;6.75;2.60;;;;;;;;;;5048334;28;20273;-74
2023/12/02 05:16:04;;;;;;;5.30;2.30;;;;;;;;;;5048272;28;20258;-74
2023/12/02 05:18:30;;;;;;;2.88;2.15;;;;;;;;;;5043452;28;20610;-73
2023/12/02 05:20:57;;;;;;;6.40;2.30;;;;;;;;;;5048508;28;20714;-74
2023/12/02 05:23:23;;;;;;;4.38;2.72;;;;;;;;;;5049209;28;20260;-74
2023/12/02 05:25:50;;;;;;;9.35;2.85;;;;;;;;;;5050140;28;20195;-73
2023/12/02 05:28:18;;;;;;;7.90;2.78;;;;;;;;;;5049338;28;20199;-73
2023/12/02 05:30:46;;;;;;;3.85;2.05;;;;;;;;;;5051534;28;20238;-74
2023/12/02 05:33:13;;;;;;;3.00;2.10;;;;;;;;;;5049374;28;20659;-73
2023/12/02 05:35:39;;;;;;;5.95;2.40;;;;;;;;;;5049526;28;20226;-74
2023/12/02 05:38:06;;;;;;;4.57;2.30;;;;;;;;;;5056029;28;20210;-74
2023/12/02 05:40:32;;;;;;;6.28;1.95;;;;;;;;;;5047330;28;20209;-73
2023/12/02 05:42:59;;;;;;;6.43;2.63;;;;;;;;;;5046978;28;20242;-74
2023/12/02 05:45:25;;;;;;;3.33;2.60;;;;;;;;;;5053162;28;20195;-74
2023/12/02 05:47:53;;;;;;;4.13;2.67;;;;;;;;;;5050911;28;20207;-73
2023/12/02 05:50:19;;;;;;;4.07;2.17;;;;;;;;;;5049142;28;20207;-74
2023/12/02 05:52:46;;;;;;;2.78;2.08;;;;;;;;;;5039772;28;20222;-73
2023/12/02 05:55:12;;;;;;;4.97;2.15;;;;;;;;;;5053785;28;20218;-73
2023/12/02 05:57:39;;;;;;;6.03;2.50;;;;;;;;;;5048765;28;20252;-73
2023/12/02 06:00:06;;;;;;;5.25;1.95;;;;;;;;;;5046010;28;20302;-74
2023/12/02 06:02:33;;;;;;;4.10;2.20;;;;;;;;;;5049370;28;20203;-74
2023/12/02 06:05:01;;;;;;;8.57;2.15;;;;;;;;;;5048475;28;20288;-72
2023/12/02 06:07:27;;;;;;;3.35;2.13;;;;;;;;;;5047892;28;20199;-73
2023/12/02 06:09:54;;;;;;;3.80;2.45;;;;;;;;;;5049419;28;20257;-73
2023/12/02 06:12:20;;;;;;;3.72;2.10;;;;;;;;;;5046551;28;20199;-73
2023/12/02 06:14:47;;;;;;;6.13;2.50;;;;;;;;;;5049590;28;20235;-73
2023/12/02 06:17:13;;;;;;;15.18;7.15;;;;;;;;;;5047949;28;20276;-73
2023/12/02 06:19:40;;;;;;;3.72;2.08;;;;;;;;;;5040785;28;20195;-73
2023/12/02 06:22:08;;;;;;;4.93;2.28;;;;;;;;;;5047459;28;20666;-73
2023/12/02 06:24:34;;;;;;;6.13;2.38;;;;;;;;;;5043731;28;20199;-73
2023/12/02 06:27:00;;;;;;;5.18;2.28;;;;;;;;;;5048780;28;20203;-73
2023/12/02 06:29:27;;;;;;;9.75;2.85;;;;;;;;;;5049037;28;20290;-73
2023/12/02 06:31:53;;;;;;;3.45;2.20;;;;;;;;;;5049149;28;20223;-75
2023/12/02 06:34:20;;;;;;;6.82;3.25;;;;;;;;;;5052121;28;20328;-74
2023/12/02 06:36:46;;;;;;;11.10;2.83;;;;;;;;;;5047801;28;20215;-74
2023/12/02 06:39:15;;;;;;;4.90;2.38;;;;;;;;;;5025478;28;20202;-75
2023/12/02 06:41:41;;;;;;;7.43;3.85;;;;;;;;;;5048536;28;20676;-74
2023/12/02 06:44:08;;;;;;;3.20;2.42;;;;;;;;;;5048442;28;20234;-74
2023/12/02 06:46:34;;;;;;;4.68;2.60;;;;;;;;;;5058405;28;20195;-74
2023/12/02 06:49:02;;;;;;;5.63;2.67;;;;;;;;;;5048506;28;20238;-74
2023/12/02 06:51:29;;;;;;;3.22;2.30;;;;;;;;;;5048135;28;20659;-73
2023/12/02 06:53:55;;;;;;;7.43;2.80;;;;;;;;;;5052775;28;20222;-74
2023/12/02 06:56:24;;;;;;;8.27;2.58;;;;;;;;;;5059439;28;20245;-74
2023/12/02 06:58:51;;;;;;;4.80;2.40;;;;;;;;;;5058570;28;20223;-74
2023/12/02 07:01:26;;;;;;;4.80;2.55;;;;;;;;;;5057345;28;20206;-74
2023/12/02 07:03:52;;;;;;;4.55;2.35;;;;;;;;;;5051358;28;20573;-73
2023/12/02 07:06:19;;;;;;;6.45;2.42;;;;;;;;;;5051660;28;20207;-74
2023/12/02 07:08:45;;;;;;;8.70;3.00;;;;;;;;;;5061354;28;20618;-74
2023/12/02 07:11:11;;;;;;;4.18;2.75;;;;;;;;;;5051891;28;20671;-74
2023/12/02 07:14:19;;;;;;;4.15;2.40;;;;;;;-142.91;0.00;100169.13;5054876;28;20198;-75
2023/12/02 07:28:42;;;;;;;11.25;2.92;;;;;;;;;;5036101;28;20755;-74
2023/12/02 07:31:12;;;;;;;5.32;2.50;;;;;;;;;;5057338;28;20234;-74
2023/12/02 07:33:39;;;;;;;3.72;2.40;;;;;;;;;;5033313;28;20231;-74
2023/12/02 07:36:07;;;;;;;12.95;2.80;;;;;;;;;;5051327;28;20226;-74
2023/12/02 07:38:34;;;;;;;6.65;2.60;;;;;;;;;;5047489;28;20264;-73
2023/12/02 07:41:03;;;;;;;9.27;3.25;;;;;;;;;;5050201;28;20638;-73
2023/12/02 07:43:29;;;;;;;8.00;3.53;;;;;;;;;;5052944;28;20203;-74
2023/12/02 07:45:55;;;;;;;10.93;3.03;;;;;;;;;;5049069;28;20226;-73
2023/12/02 07:48:22;;;;;;;6.72;2.53;;;;;;;;;;5052386;28;20203;-74
2023/12/02 07:50:48;;;;;;;12.52;3.28;;;;;;;;;;5051376;28;20207;-73
2023/12/02 07:53:16;;;;;;;7.85;2.60;;;;;;;;;;5049509;28;20615;-74
2023/12/02 07:55:43;;;;;;;6.85;4.20;;;;;;;;;;5049429;28;20262;-74
2023/12/02 07:58:09;;;;;;;6.40;2.83;;;;;;;;;;5052293;28;20257;-75
2023/12/02 08:00:35;;;;;;;6.60;2.67;;;;;;;;;;5049970;28;20296;-74
2023/12/02 08:03:02;;;;;;;7.50;2.25;;;;;;;;;;5062495;28;20203;-75
2023/12/02 08:05:28;;;;;;;5.47;2.53;;;;;;;;;;5050033;28;20204;-75
2023/12/02 08:07:55;;;;;;;1.98;1.80;;;;;;;;;;5056676;28;20224;-74
2023/12/02 08:10:23;;;;;;;7.55;3.38;;;;;;;;;;5051457;28;20207;-75
2023/12/02 08:12:49;;;;;;;10.45;3.90;;;;;;;;;;5049467;28;20202;-74
2023/12/02 08:15:16;;;;;;;7.30;6.20;;;;;;;;;;5048860;28;20333;-75
2023/12/02 08:17:43;;;;;;;8.07;4.38;;;;;;;;;;5053352;28;20665;-75
2023/12/02 08:20:09;;;;;;;6.82;3.40;;;;;;;;;;5051632;28;20199;-75
2023/12/02 08:22:36;;;;;;;4.22;2.42;;;;;;;;;;5050530;28;20672;-74
2023/12/02 08:25:02;;;;;;;6.90;4.25;;;;;;;;;;5046883;28;20661;-73
2023/12/02 08:27:31;;;;;;;8.57;3.70;;;;;;;;;;5055194;28;20256;-74
2023/12/02 08:29:57;;;;;;;15.18;8.07;;;;;;;;;;5047954;28;20723;-74
2023/12/02 08:32:24;;;;;;;10.13;5.93;;;;;;;;;;5048291;28;20231;-74
2023/12/02 08:34:50;;;;;;;9.10;3.03;;;;;;;;;;5049930;28;20222;-74
2023/12/02 08:37:16;;;;;;;10.07;4.70;;;;;;;;;;5053541;28;20320;-74
2023/12/02 08:39:43;;;;;;;14.50;3.80;;;;;;;;;;5048624;28;20337;-74
2023/12/02 08:42:09;;;;;;;4.35;3.10;;;;;;;;;;5053600;28;20287;-73
2023/12/02 08:44:38;;;;;;;11.30;3.72;;;;;;;;;;5050249;28;20226;-73
2023/12/02 08:47:06;;;;;;;6.75;4.10;;;;;;;;;;5048553;28;20257;-75
2023/12/02 08:49:33;;;;;;;12.32;3.30;;;;;;;;;;5032150;28;20253;-74
2023/12/02 08:51:59;;;;;;;9.05;3.95;;;;;;;;;;5030755;28;20288;-75
2023/12/02 08:54:26;;;;;;;7.15;4.03;;;;;;;;;;5055688;28;20194;-73
2023/12/02 08:56:53;;;;;;;6.68;3.80;;;;;;;;;;5059310;28;20222;-74
2023/12/02 08:59:19;;;;;;;4.60;3.45;;;;;;;;;;5049524;28;20515;-75
2023/12/02 09:01:47;;;;;;;5.20;3.25;;;;;;;;;;5047942;28;20281;-75
2023/12/02 09:04:13;;;;;;;7.70;3.60;;;;;;;;;;5049225;28;20292;-76
2023/12/02 09:06:40;;;;;;;8.52;3.17;;;;;;;;;;5047474;28;20203;-73
2023/12/02 09:09:07;;;;;;;11.40;3.58;;;;;;;;;;5044761;28;20211;-74
2023/12/02 09:11:35;;;;;;;6.18;3.22;;;;;;;;;;5044450;28;20207;-74
2023/12/02 09:14:01;;;;;;;15.32;6.53;;;;;;;;;;5050285;28;20268;-73
2023/12/02 09:16:28;;;;;;;18.98;9.98;;;;;;;;;;5043070;28;20722;-74
2023/12/02 09:18:56;;;;;;;8.55;3.28;;;;;;;;;;5043867;28;21191;-74
2023/12/02 09:21:34;;;;;;;7.20;3.88;;;;;;;;;;5040597;28;20199;-73
2023/12/02 09:24:02;;;;;;;7.78;3.33;;;;;;;;;;5044834;28;20660;-73
2023/12/02 09:26:29;;;;;;;4.70;2.72;;;;;;;;;;5041946;28;20595;-74
2023/12/02 09:28:56;;;;;;;4.25;2.05;;;;;;;;;;5045716;28;20202;-74
2023/12/02 09:31:23;;;;;;;13.73;3.25;;;;;;;;;;5044711;28;20320;-73
2023/12/02 09:33:55;;;;;;;4.70;2.78;;;;;;;;;;5043637;28;20292;-75
2023/12/02 09:36:31;;;;;;;10.75;3.65;;;;;;;;;;5040688;28;20711;-74
2023/12/02 09:38:59;;;;;;;6.93;2.75;;;;;;;;;;5046723;28;20666;-74
2023/12/02 09:41:31;;;;;;;6.13;3.42;;;;;;;;;;5041353;28;21096;-74
2023/12/02 09:44:06;;;;;;;8.23;3.33;;;;;;;;;;5043560;28;20293;-74
2023/12/02 09:46:34;;;;;;;7.68;3.63;;;;;;;;;;5045615;28;20226;-74
2023/12/02 09:49:07;;;;;;;13.80;3.72;;;;;;;;;;5044823;28;20280;-74
2023/12/02 09:51:44;;;;;;;11.55;3.55;;;;;;;;;;5045755;28;20211;-74
2023/12/02 09:54:15;;;;;;;7.88;3.80;;;;;;;;;;5043364;28;20240;-74
2023/12/02 09:56:44;;;;;;;24.63;4.07;;;;;;;;;;5044176;28;20735;-74
2023/12/02 09:59:14;;;;;;;6.82;3.67;;;;;;;;;;5043619;28;20195;-74
2023/12/02 10:01:42;;;;;;;6.03;3.65;;;;;;;;;;5023749;28;20253;-73
2023/12/02 10:04:12;;;;;;;8.60;3.65;;;;;;;;;;5056416;28;20285;-74
2023/12/02 10:06:47;;;;;;;10.70;4.28;;;;;;;;;;5047887;28;20198;-73
2023/12/02 10:09:18;;;;;;;7.50;4.03;;;;;;;;;;5051588;28;20198;-72
2023/12/02 10:11:53;;;;;;;6.72;4.03;;;;;;;;;;5056207;28;20202;-73
2023/12/02 10:14:23;;;;;;;8.10;3.60;;;;;;;;;;5047268;28;20202;-73
2023/12/02 10:16:53;;;;;;;6.22;3.70;;;;;;;;;;5046886;28;20218;-75
2023/12/02 10:19:26;;;;;;;12.73;3.97;;;;;;;;;;5046768;28;20257;-75
2023/12/02 10:21:55;;;;;;;11.25;4.72;;;;;;;;;;5048988;28;20222;-74
2023/12/02 10:24:27;;;;;;;9.75;4.30;;;;;;;;;;5047759;28;20298;-74
2023/12/02 10:26:58;;;;;;;12.63;4.95;;;;;;;;;;5047487;28;20253;-74
2023/12/02 10:29:29;;;;;;;8.20;4.85;;;;;;;;;;5047958;28;20268;-74
2023/12/02 10:32:01;;;;;;;11.90;6.25;;;;;;;;;;5050329;28;20226;-74
2023/12/02 10:34:29;;;;;;;11.38;6.20;;;;;;;;;;5052259;28;20202;-74
2023/12/02 10:36:59;;;;;;;12.38;5.03;;;;;;;;;;5056208;28;20218;-73
2023/12/02 10:39:30;;;;;;;7.75;5.15;;;;;;;;;;5050172;28;20256;-74
2023/12/02 10:42:11;;;;;;;9.95;4.20;;;;;;;;;;5053269;28;20227;-73
2023/12/02 10:44:38;;;;;;;15.90;5.15;;;;;;;;;;5052646;28;20206;-73
2023/12/02 10:47:06;;;;;;;8.65;4.82;;;;;;;;;;5051133;28;20202;-74
2023/12/02 10:49:33;;;;;;;11.43;4.95;;;;;;;;;;5054528;28;20203;-73
2023/12/02 10:52:01;;;;;;;19.25;4.95;;;;;;;;;;5051284;28;20275;-73
2023/12/02 10:54:29;;;;;;;14.05;5.78;;;;;;;;;;5052393;28;20258;-73
2023/12/02 10:57:04;;;;;;;20.10;4.30;;;;;;;;;;5050081;28;20241;-74
2023/12/02 10:59:34;;;;;;;8.13;5.13;;;;;;;;;;5051541;28;20207;-72
2023/12/02 11:02:03;;;;;;;12.23;5.35;;;;;;;;;;5048569;28;20199;-73
2023/12/02 11:04:33;;;;;;;11.80;4.85;;;;;;;;;;5040057;28;20257;-73
2023/12/02 11:07:03;;;;;;;20.92;6.80;;;;;;;;;;5047816;28;20199;-73
2023/12/02 11:09:37;;;;;;;22.67;5.15;;;;;;;;;;5050193;28;20646;-73
2023/12/02 11:12:04;;;;;;;15.60;5.35;;;;;;;;;;5052359;28;20231;-73
2023/12/02 11:14:36;;;;;;;19.88;6.85;;;;;;;;;;5056042;28;20296;-72
2023/12/02 11:17:07;;;;;;;16.63;6.88;;;;;;;;;;5050868;28;20223;-73
2023/12/02 11:19:41;;;;;;;11.13;3.53;;;;;;;;;;5049666;28;20203;-75
2023/12/02 11:22:25;;;;;;;9.00;3.30;;;;;;;;;;5049645;28;20293;-75
2023/12/02 11:25:00;;;;;;;11.68;4.68;;;;;;;;;;5034846;28;20195;-72
2023/12/02 11:27:34;;;;;;;8.93;2.95;;;;;;;;;;5050888;28;20727;-73
2023/12/02 11:30:03;;;;;;;5.68;2.35;;;;;;;;;;5048277;28;20260;-73
2023/12/02 11:32:35;;;;;;;6.88;3.40;;;;;;;;;;5050764;28;20315;-73
2023/12/02 11:35:13;;;;;;;10.82;3.65;;;;;;;;;;5063310;28;20284;-74
2023/12/02 11:37:53;;;;;;;11.88;2.45;;;;;;;;;;5052411;28;20280;-75
2023/12/02 11:40:23;;;;;;;5.70;2.13;;;;;;;;;;5048148;28;20587;-74
2023/12/02 11:42:55;;;;;;;12.25;2.83;;;;;;;;;;5015482;28;20288;-73
2023/12/02 11:45:40;;;;;;;7.78;3.15;;;;;;;;;;5027014;28;20215;-75
2023/12/02 11:48:10;;;;;;;11.18;3.97;;;;;;;;;;5022983;28;20200;-73
2023/12/02 11:50:42;;;;;;;6.22;3.75;;;;;;;;;;5051026;28;20252;-75
2023/12/02 11:53:14;;;;;;;5.82;2.38;;;;;;;;;;5050635;28;20198;-75
2023/12/02 11:55:44;;;;;;;11.73;3.35;;;;;;;;;;5051108;28;20230;-74
2023/12/02 11:58:13;;;;;;;7.13;2.10;;;;;;;;;;5048783;28;20305;-75
2023/12/02 12:01:01;;;;;;;6.35;2.80;;;;;;;-142.91;0.00;100169.13;5054375;28;20722;-75
2023/12/02 12:03:39;;;;;;;14.68;3.08;;;;;;;;;;5048372;28;20226;-74
2023/12/02 12:06:12;;;;;;;8.27;2.72;;;;;;;;;;5000865;28;20205;-75
2023/12/02 12:08:42;;;;;;;7.25;3.97;;;;;;;;;;5052770;28;20206;-74
2023/12/02 12:11:10;;;;;;;7.55;3.70;;;;;;;;;;5051579;28;20207;-75
2023/12/02 12:13:37;;;;;;;10.30;3.28;;;;;;;;;;5054774;28;20230;-73
2023/12/02 12:16:04;;;;;;;12.80;3.60;;;;;;;;;;5051317;28;20291;-74
2023/12/02 12:18:30;;;;;;;6.43;2.53;;;;;;;;;;5050166;28;20241;-74
2023/12/02 12:20:57;;;;;;;6.97;2.65;;;;;;;;;;5051781;28;20255;-76
2023/12/02 12:23:24;;;;;;;4.80;2.25;;;;;;;;;;5037691;28;20311;-74
2023/12/02 12:25:51;;;;;;;5.30;1.85;;;;;;;;;;5048991;28;20277;-73
2023/12/02 12:28:19;;;;;;;6.75;1.80;;;;;;;;;;5031601;28;20203;-73
2023/12/02 12:30:47;;;;;;;5.70;2.20;;;;;;;;;;5049199;28;20581;-74
2023/12/02 12:33:14;;;;;;;3.78;2.33;;;;;;;;;;5054433;28;20226;-75
2023/12/02 12:35:40;;;;;;;6.05;2.70;;;;;;;;;;5051749;28;20202;-74
2023/12/02 12:38:08;;;;;;;9.43;2.55;;;;;;;;;;5054354;28;20261;-74
2023/12/02 12:40:35;;;;;;;7.07;2.60;;;;;;;;;;5051978;28;20286;-73
2023/12/02 12:43:02;;;;;;;6.60;2.58;;;;;;;;;;5047386;28;20217;-76
2023/12/02 12:45:30;;;;;;;4.65;2.17;;;;;;;;;;5053246;28;20968;-73
2023/12/02 12:47:57;;;;;;;8.10;2.40;;;;;;;;;;5029809;28;20759;-75
2023/12/02 12:50:23;;;;;;;5.07;2.47;;;;;;;;;;5052203;28;20199;-75
2023/12/02 12:52:51;;;;;;;8.45;2.72;;;;;;;;;;5048134;28;20203;-74
2023/12/02 12:55:19;;;;;;;4.85;2.58;;;;;;;;;;5056433;28;20238;-74
2023/12/02 12:57:50;;;;;;;4.50;2.10;;;;;;;;;;5044187;28;20233;-73
2023/12/02 13:00:18;;;;;;;13.50;3.10;;;;;;;;;;5021795;28;20685;-74
2023/12/02 13:02:50;;;;;;;6.18;2.05;;;;;;;;;;5014558;28;20210;-73
2023/12/02 13:05:19;;;;;;;4.70;2.00;;;;;;;;;;5029436;28;20750;-76
2023/12/02 13:07:49;;;;;;;4.10;1.40;;;;;;;;;;5023513;28;20254;-75
2023/12/02 13:10:16;;;;;;;9.00;1.83;;;;;;;;;;5037580;28;20218;-73
2023/12/02 13:12:45;;;;;;;9.35;1.77;;;;;;;;;;5033256;28;20198;-73
2023/12/02 13:15:13;;;;;;;4.40;1.55;;;;;;;;;;5029941;28;20203;-74
2023/12/02 13:17:41;;;;;;;6.93;2.28;;;;;;;;;;5029097;28;20228;-74
2023/12/02 13:20:10;;;;;;;5.55;1.80;;;;;;;;;;5031473;28;20196;-73
2023/12/02 13:22:37;;;;;;;9.73;1.63;;;;;;;;;;5034486;28;20669;-73
2023/12/02 13:25:04;;;;;;;7.00;1.58;;;;;;;;;;5033787;28;20224;-73
2023/12/02 13:27:34;;;;;;;7.70;2.80;;;;;;;;;;5027314;28;20672;-73
2023/12/02 13:30:03;;;;;;;3.47;1.98;;;;;;;;;;5026961;28;20963;-73
2023/12/02 13:32:31;;;;;;;8.40;6.15;;;;;;;;;;5011496;28;21869;-70
2023/12/02 13:35:01;;;;;;;9.65;5.07;;;;;;;;;;5014631;28;20223;-68
2023/12/02 13:37:34;;;;;;;20.15;9.10;;;;;;;;;;5029570;28;20310;-69
2023/12/02 13:40:00;;;;;;;11.40;5.50;;;;;;;;;;5031229;28;20202;-68
2023/12/02 13:42:27;;;;;;;13.10;4.97;;;;;;;;;;5036921;28;20203;-69
2023/12/02 13:44:56;;;;;;;10.40;3.45;;;;;;;;;;5042335;28;20285;-70
2023/12/02 13:47:24;;;;;;;9.95;5.85;;;;;;;;;;5047459;28;20799;-69
2023/12/02 13:49:54;;;;;;;13.30;5.10;;;;;;;;;;5047087;28;20682;-70
2023/12/02 13:52:29;;;;;;;10.85;4.82;;;;;;;;;;5045212;28;20291;-71
2023/12/02 13:55:05;;;;;;;15.60;7.03;;;;;;;;;;5046447;28;20727;-70
2023/12/02 13:57:37;;;;;;;9.45;2.47;;;;;;;;;;5047238;28;20309;-72
2023/12/02 14:00:05;;;;;;;7.43;1.88;;;;;;;;;;5045357;28;20234;-71
2023/12/02 14:02:40;;;;;;;9.95;2.97;;;;;;;;;;5055945;28;20209;-71
2023/12/02 14:05:11;;;;;;;6.68;3.10;;;;;;;;;;5052378;28;20206;-70
2023/12/02 14:07:44;;;;;;;6.20;3.50;;;;;;;;;;5044492;28;20288;-71
2023/12/02 14:10:13;;;;;;;13.65;2.55;;;;;;;;;;5050111;28;20257;-70
2023/12/02 14:12:51;;;;;;;9.70;5.07;;;;;;;;;;5049729;28;20203;-69
2023/12/02 14:15:25;;;;;;;10.38;5.03;;;;;;;;;;5049816;28;20230;-69
2023/12/02 14:18:00;;;;;;;11.35;4.82;;;;;;;;;;5049174;28;20320;-70
2023/12/02 14:20:36;;;;;;;9.93;4.68;;;;;;;;;;5051979;28;20202;-70
2023/12/02 14:23:16;;;;;;;13.07;5.25;;;;;;;;;;5048366;28;20292;-69
2023/12/02 14:26:03;;;;;;;9.93;3.65;;;;;;;;;;5037634;28;20203;-69
2023/12/02 14:28:35;;;;;;;5.00;2.20;;;;;;;;;;5047264;28;20873;-69
2023/12/02 14:31:06;;;;;;;10.63;3.28;;;;;;;;;;5048700;28;20206;-70
2023/12/02 14:33:40;;;;;;;8.15;2.85;;;;;;;;;;5047988;28;20207;-70
2023/12/02 14:36:11;;;;;;;10.73;3.58;;;;;;;;;;5048871;28;20207;-70
2023/12/02 14:38:50;;;;;;;12.80;4.82;;;;;;;;;;5053633;28;20650;-69
2023/12/02 14:41:25;;;;;;;9.38;3.05;;;;;;;;;;5042987;28;20248;-70
2023/12/02 14:43:57;;;;;;;9.30;3.55;;;;;;;;;;5045561;28;20276;-69
2023/12/02 14:46:26;;;;;;;9.32;6.18;;;;;;;;;;5049592;28;20202;-71
2023/12/02 14:48:52;;;;;;;13.05;5.50;;;;;;;;;;5048122;28;20223;-71
2023/12/02 14:51:20;;;;;;;9.73;5.50;;;;;;;;;;5046273;28;20235;-72
2023/12/02 14:53:47;;;;;;;10.05;6.15;;;;;;;;;;5054350;28;20260;-71
2023/12/02 14:56:32;;;;;;;12.32;6.18;;;;;;;;;;5049134;28;20751;-72